createdAt,value
2018-01-07T00:01:27.891Z,2.30
2018-01-07T00:04:29.775Z,2.03
2018-01-07T00:07:31.782Z,2.00
2018-01-07T00:10:33.879Z,2.23
2018-01-07T00:13:35.736Z,2.07
2018-01-07T00:16:38.051Z,1.80
2018-01-07T00:19:39.914Z,2.20
2018-01-07T00:22:41.806Z,1.97
2018-01-07T00:25:43.676Z,2.00
2018-01-07T00:28:45.555Z,2.00
2018-01-07T00:31:47.455Z,1.67
2018-01-07T00:34:49.327Z,1.87
2018-01-07T00:37:51.223Z,2.10
2018-01-07T00:40:53.099Z,2.20
2018-01-07T00:43:55.012Z,1.87
2018-01-07T00:46:56.871Z,2.00
2018-01-07T00:49:58.763Z,2.00
2018-01-07T00:53:00.612Z,1.90
2018-01-07T00:56:02.498Z,2.03
2018-01-07T00:59:04.351Z,2.10
2018-01-07T01:02:06.248Z,2.00
2018-01-07T01:05:08.119Z,2.00
2018-01-07T01:08:10.308Z,2.10
2018-01-07T01:11:12.159Z,1.90
2018-01-07T01:14:14.050Z,1.53
2018-01-07T01:17:15.931Z,1.60
2018-01-07T01:20:17.814Z,1.87
2018-01-07T01:23:19.704Z,2.20
2018-01-07T01:26:21.564Z,1.77
2018-01-07T01:29:23.508Z,1.93
2018-01-07T01:32:25.376Z,1.90
2018-01-07T01:35:27.268Z,1.80
2018-01-07T01:38:29.154Z,1.60
2018-01-07T01:41:31.024Z,1.93
2018-01-07T01:44:33.167Z,1.97
2018-01-07T01:47:35.043Z,1.90
2018-01-07T01:50:36.923Z,1.77
2018-01-07T01:53:38.779Z,2.13
2018-01-07T01:56:40.659Z,2.13
2018-01-07T01:59:42.539Z,2.00
2018-01-07T02:02:44.412Z,1.90
2018-01-07T02:05:46.287Z,2.00
2018-01-07T02:08:48.149Z,1.93
2018-01-07T02:11:50.051Z,1.90
2018-01-07T02:14:51.903Z,1.90
2018-01-07T02:17:53.975Z,2.07
2018-01-07T02:20:55.836Z,1.73
2018-01-07T02:23:57.732Z,1.90
2018-01-07T02:26:59.600Z,1.90
2018-01-07T02:30:01.486Z,1.97
2018-01-07T02:33:03.340Z,1.90
2018-01-07T02:36:05.210Z,1.93
2018-01-07T02:39:07.098Z,1.90
2018-01-07T02:42:08.964Z,1.93
2018-01-07T02:45:10.844Z,1.80
2018-01-07T02:48:13.061Z,2.27
2018-01-07T02:51:14.926Z,1.77
2018-01-07T02:54:16.799Z,2.00
2018-01-07T02:57:18.663Z,1.70
2018-01-07T03:00:20.552Z,1.90
2018-01-07T03:03:22.422Z,1.90
2018-01-07T03:06:24.323Z,1.90
2018-01-07T03:09:26.187Z,1.73
2018-01-07T03:12:28.081Z,1.63
2018-01-07T03:15:29.956Z,1.77
2018-01-07T03:18:31.831Z,2.10
2018-01-07T03:21:33.687Z,1.93
2018-01-07T03:24:35.568Z,1.90
2018-01-07T03:27:37.431Z,1.80
2018-01-07T03:30:39.392Z,1.90
2018-01-07T03:33:41.239Z,1.70
2018-01-07T03:36:43.127Z,1.93
2018-01-07T03:39:45.012Z,1.90
2018-01-07T03:42:46.904Z,2.20
2018-01-07T03:45:48.772Z,1.70
2018-01-07T03:48:50.659Z,1.83
2018-01-07T03:51:52.512Z,1.80
2018-01-07T03:54:54.395Z,1.67
2018-01-07T03:57:56.290Z,1.97
2018-01-07T04:00:58.154Z,1.90
2018-01-07T04:04:00.068Z,1.90
2018-01-07T04:07:01.919Z,1.87
2018-01-07T04:10:03.799Z,1.80
2018-01-07T04:13:05.674Z,1.67
2018-01-07T04:16:07.568Z,2.00
2018-01-07T04:19:11.643Z,2.00
2018-01-07T04:22:13.523Z,2.00
2018-01-07T04:25:15.420Z,1.70
2018-01-07T04:28:17.292Z,2.03
2018-01-07T04:31:19.178Z,2.00
2018-01-07T04:34:21.032Z,1.93
2018-01-07T04:37:22.926Z,1.63
2018-01-07T04:40:24.792Z,1.97
2018-01-07T04:43:26.676Z,1.60
2018-01-07T04:46:28.538Z,1.80
2018-01-07T04:49:30.497Z,1.80
2018-01-07T04:52:32.446Z,1.70
2018-01-07T04:55:34.336Z,1.87
2018-01-07T04:58:36.198Z,1.80
2018-01-07T05:01:38.269Z,1.57
2018-01-07T05:04:40.130Z,1.53
2018-01-07T05:07:42.054Z,1.60
2018-01-07T05:10:43.915Z,1.60
2018-01-07T05:13:45.796Z,1.70
2018-01-07T05:16:47.691Z,1.80
2018-01-07T05:19:49.559Z,1.80
2018-01-07T05:22:51.436Z,1.70
2018-01-07T05:25:53.321Z,1.60
2018-01-07T05:28:55.196Z,1.53
2018-01-07T05:31:57.078Z,1.90
2018-01-07T05:34:58.943Z,1.53
2018-01-07T05:38:00.828Z,1.93
2018-01-07T05:41:02.861Z,1.50
2018-01-07T05:44:04.719Z,1.33
2018-01-07T05:47:06.604Z,1.47
2018-01-07T05:50:08.477Z,1.50
2018-01-07T05:53:10.340Z,1.53
2018-01-07T05:56:12.464Z,1.50
2018-01-07T05:59:14.344Z,1.40
2018-01-07T06:02:16.246Z,1.40
2018-01-07T06:05:18.112Z,1.20
2018-01-07T06:08:19.991Z,1.20
2018-01-07T06:11:21.875Z,1.40
2018-01-07T06:14:23.742Z,1.40
2018-01-07T06:17:25.635Z,1.30
2018-01-07T06:20:27.507Z,1.60
2018-01-07T06:23:29.387Z,1.63
2018-01-07T06:26:31.294Z,1.57
2018-01-07T06:29:33.143Z,1.43
2018-01-07T06:32:35.023Z,1.43
2018-01-07T06:35:37.220Z,1.40
2018-01-07T06:38:39.115Z,1.50
2018-01-07T06:41:41.003Z,1.53
2018-01-07T06:44:42.863Z,1.53
2018-01-07T06:47:44.768Z,1.40
2018-01-07T06:50:46.638Z,1.60
2018-01-07T06:53:48.524Z,1.30
2018-01-07T06:56:50.400Z,1.60
2018-01-07T06:59:52.300Z,1.40
2018-01-07T07:02:54.180Z,1.37
2018-01-07T07:05:56.076Z,1.30
2018-01-07T07:08:57.922Z,1.40
2018-01-07T07:11:59.804Z,1.53
2018-01-07T07:15:01.687Z,1.10
2018-01-07T07:18:03.558Z,1.30
2018-01-07T07:21:05.439Z,1.20
2018-01-07T07:24:07.303Z,1.13
2018-01-07T07:27:09.247Z,1.20
2018-01-07T07:30:11.127Z,1.27
2018-01-07T07:33:13.043Z,1.33
2018-01-07T07:36:14.907Z,1.40
2018-01-07T07:39:16.797Z,1.23
2018-01-07T07:42:18.844Z,1.33
2018-01-07T07:45:20.702Z,1.30
2018-01-07T07:48:22.739Z,1.20
2018-01-07T07:51:24.607Z,1.50
2018-01-07T07:54:26.498Z,1.50
2018-01-07T07:57:28.387Z,1.40
2018-01-07T08:00:30.532Z,1.50
2018-01-07T08:03:32.399Z,1.20
2018-01-07T08:06:34.291Z,1.30
2018-01-07T08:09:36.163Z,1.10
2018-01-07T08:12:38.048Z,1.30
2018-01-07T08:15:39.907Z,1.50
2018-01-07T08:18:41.780Z,1.30
2018-01-07T08:21:43.661Z,1.10
2018-01-07T08:24:45.527Z,1.37
2018-01-07T08:27:47.384Z,1.37
2018-01-07T08:30:49.291Z,1.30
2018-01-07T08:33:51.224Z,1.10
2018-01-07T08:36:53.056Z,1.10
2018-01-07T08:39:54.935Z,1.10
2018-01-07T08:42:56.843Z,1.40
2018-01-07T08:45:58.735Z,1.10
2018-01-07T08:49:00.696Z,1.20
2018-01-07T08:52:02.609Z,1.30
2018-01-07T08:55:04.460Z,1.20
2018-01-07T08:58:06.356Z,1.33
2018-01-07T09:01:08.268Z,1.23
2018-01-07T09:04:10.144Z,1.27
2018-01-07T09:07:12.052Z,1.20
2018-01-07T09:10:13.902Z,1.30
2018-01-07T09:13:15.871Z,1.20
2018-01-07T09:16:17.758Z,1.30
2018-01-07T09:19:19.680Z,1.00
2018-01-07T09:22:21.543Z,1.17
2018-01-07T09:25:23.428Z,1.17
2018-01-07T09:28:25.476Z,1.10
2018-01-07T09:31:27.338Z,1.17
2018-01-07T09:34:29.198Z,1.20
2018-01-07T09:37:31.250Z,1.10
2018-01-07T09:40:33.178Z,1.10
2018-01-07T09:43:35.248Z,1.03
2018-01-07T09:46:37.103Z,1.07
2018-01-07T09:49:39.189Z,1.20
2018-01-07T09:52:41.104Z,1.30
2018-01-07T09:55:43.047Z,1.00
2018-01-07T09:58:44.955Z,1.20
2018-01-07T10:01:46.884Z,1.20
2018-01-07T10:04:49.132Z,1.10
2018-01-07T10:07:51.063Z,1.10
2018-01-07T10:10:52.985Z,1.00
2018-01-07T10:13:55.259Z,1.10
2018-01-07T10:16:57.119Z,1.10
2018-01-07T10:19:59.244Z,1.20
2018-01-07T10:23:01.225Z,1.10
2018-01-07T10:26:03.099Z,1.00
2018-01-07T10:29:05.222Z,1.00
2018-01-07T10:32:07.308Z,1.20
2018-01-07T10:35:09.231Z,0.90
2018-01-07T10:38:11.263Z,1.20
2018-01-07T10:41:13.153Z,1.17
2018-01-07T10:44:15.284Z,1.10
2018-01-07T10:47:17.556Z,1.10
2018-01-07T10:50:19.422Z,1.00
2018-01-07T10:53:21.327Z,1.10
2018-01-07T10:56:23.206Z,1.07
2018-01-07T10:59:25.083Z,1.00
2018-01-07T11:02:31.114Z,1.60
2018-01-07T11:05:33.007Z,2.83
2018-01-07T11:08:34.872Z,4.10
2018-01-07T11:11:36.760Z,5.67
2018-01-07T11:14:38.636Z,7.00
2018-01-07T11:17:42.039Z,8.77
2018-01-07T11:20:44.249Z,10.00
2018-01-07T11:23:46.132Z,10.77
2018-01-07T11:26:48.068Z,9.93
2018-01-07T11:29:49.916Z,10.40
2018-01-07T11:32:52.025Z,9.80
2018-01-07T11:35:53.878Z,10.40
2018-01-07T11:38:55.779Z,11.80
2018-01-07T11:41:57.697Z,12.57
2018-01-07T11:44:59.561Z,12.97
2018-01-07T11:48:01.581Z,11.50
2018-01-07T11:51:03.489Z,11.23
2018-01-07T11:54:05.440Z,10.47
2018-01-07T11:57:07.333Z,9.97
2018-01-07T12:00:09.195Z,9.53
2018-01-07T12:03:11.347Z,9.13
2018-01-07T12:06:13.273Z,8.00
2018-01-07T12:09:15.417Z,8.43
2018-01-07T12:12:17.245Z,8.50
2018-01-07T12:15:19.146Z,8.23
2018-01-07T12:18:21.089Z,8.07
2018-01-07T12:21:23.871Z,8.07
2018-01-07T12:24:25.743Z,8.40
2018-01-07T12:27:27.716Z,7.63
2018-01-07T12:30:29.647Z,7.20
2018-01-07T12:33:31.531Z,5.97
2018-01-07T12:36:33.454Z,5.80
2018-01-07T12:39:35.394Z,6.30
2018-01-07T12:42:37.258Z,5.33
2018-01-07T12:45:39.173Z,5.30
2018-01-07T12:48:41.083Z,5.70
2018-01-07T12:51:43.024Z,6.23
2018-01-07T12:54:45.047Z,5.40
2018-01-07T12:57:46.948Z,5.70
2018-01-07T13:00:49.155Z,5.23
2018-01-07T13:03:51.024Z,5.10
2018-01-07T13:06:52.904Z,4.80
2018-01-07T13:09:54.823Z,5.20
2018-01-07T13:12:56.732Z,4.80
2018-01-07T13:15:58.803Z,4.80
2018-01-07T13:19:00.659Z,4.87
2018-01-07T13:22:02.587Z,5.13
2018-01-07T13:25:04.464Z,4.57
2018-01-07T13:28:06.415Z,4.80
2018-01-07T13:31:08.320Z,4.70
2018-01-07T13:34:10.208Z,5.00
2018-01-07T13:37:12.591Z,4.13
2018-01-07T13:40:14.456Z,4.30
2018-01-07T13:43:16.404Z,4.00
2018-01-07T13:46:18.301Z,4.67
2018-01-07T13:49:20.147Z,3.90
2018-01-07T13:52:22.048Z,4.80
2018-01-07T13:55:24.019Z,3.90
2018-01-07T13:58:25.912Z,4.23
2018-01-07T14:01:27.778Z,4.07
2018-01-07T14:04:29.672Z,4.00
2018-01-07T14:07:31.557Z,4.10
2018-01-07T14:10:33.541Z,3.83
2018-01-07T14:13:35.444Z,4.17
2018-01-07T14:16:37.323Z,3.80
2018-01-07T14:19:39.212Z,3.57
2018-01-07T14:22:41.135Z,3.53
2018-01-07T14:25:43.003Z,3.50
2018-01-07T14:28:44.936Z,3.53
2018-01-07T14:31:46.936Z,3.57
2018-01-07T14:34:48.852Z,3.60
2018-01-07T14:37:50.796Z,3.60
2018-01-07T14:40:52.759Z,3.53
2018-01-07T14:43:54.627Z,3.60
2018-01-07T14:46:56.683Z,3.43
2018-01-07T14:49:58.553Z,3.30
2018-01-07T14:53:00.435Z,3.20
2018-01-07T14:56:02.319Z,3.33
2018-01-07T14:59:04.223Z,2.60
2018-01-07T15:02:06.128Z,3.33
2018-01-07T15:05:08.015Z,3.70
2018-01-07T15:08:09.943Z,3.10
2018-01-07T15:11:11.880Z,3.00
2018-01-07T15:14:13.870Z,2.70
2018-01-07T15:17:15.735Z,3.00
2018-01-07T15:20:17.867Z,3.00
2018-01-07T15:23:19.738Z,3.10
2018-01-07T15:26:22.747Z,3.10
2018-01-07T15:29:24.627Z,2.90
2018-01-07T15:32:26.506Z,3.57
2018-01-07T15:35:28.378Z,3.00
2018-01-07T15:38:30.331Z,3.27
2018-01-07T15:41:32.202Z,2.93
2018-01-07T15:44:34.989Z,2.97
2018-01-07T15:47:36.895Z,2.70
2018-01-07T15:50:38.987Z,2.77
2018-01-07T15:53:40.851Z,2.67
2018-01-07T15:56:42.731Z,2.87
2018-01-07T15:59:44.578Z,2.57
2018-01-07T16:02:46.473Z,2.47
2018-01-07T16:05:48.345Z,2.70
2018-01-07T16:08:50.228Z,2.83
2018-01-07T16:11:52.120Z,2.70
2018-01-07T16:14:54.008Z,2.80
2018-01-07T16:17:55.871Z,2.60
2018-01-07T16:20:57.746Z,2.95
2018-01-07T16:23:59.622Z,2.70
2018-01-07T16:27:01.516Z,2.63
2018-01-07T16:30:03.413Z,2.60
2018-01-07T16:33:05.390Z,2.27
2018-01-07T16:36:07.296Z,2.57
2018-01-07T16:39:09.218Z,2.50
2018-01-07T16:42:11.123Z,2.20
2018-01-07T16:45:12.993Z,2.10
2018-01-07T16:48:14.867Z,2.30
2018-01-07T16:51:16.728Z,2.40
2018-01-07T16:54:18.640Z,2.47
2018-01-07T16:57:20.556Z,2.20
2018-01-07T17:00:22.564Z,2.23
2018-01-07T17:03:24.438Z,2.40
2018-01-07T17:06:26.356Z,2.57
2018-01-07T17:09:28.220Z,2.10
2018-01-07T17:12:30.548Z,2.17
2018-01-07T17:15:32.419Z,2.30
2018-01-07T17:18:34.327Z,2.40
2018-01-07T17:21:36.222Z,2.20
2018-01-07T17:24:38.115Z,2.10
2018-01-07T17:27:39.963Z,2.10
2018-01-07T17:30:42.747Z,2.23
2018-01-07T17:33:44.632Z,2.30
2018-01-07T17:36:46.502Z,2.40
2018-01-07T17:39:48.951Z,2.23
2018-01-07T17:42:51.866Z,2.27
2018-01-07T17:45:53.777Z,1.97
2018-01-07T17:48:55.644Z,2.33
2018-01-07T17:51:57.528Z,2.10
2018-01-07T17:54:59.391Z,1.93
2018-01-07T17:58:01.339Z,2.17
2018-01-07T18:01:03.203Z,2.30
2018-01-07T18:04:05.107Z,2.40
2018-01-07T18:07:07.045Z,2.30
2018-01-07T18:10:08.949Z,2.13
2018-01-07T18:13:10.812Z,2.37
2018-01-07T18:16:12.743Z,2.23
2018-01-07T18:19:14.635Z,2.33
2018-01-07T18:22:16.516Z,2.47
2018-01-07T18:25:18.555Z,2.13
2018-01-07T18:28:20.461Z,2.07
2018-01-07T18:31:22.356Z,2.03
2018-01-07T18:34:24.227Z,2.30
2018-01-07T18:37:26.168Z,1.90
2018-01-07T18:40:28.005Z,2.20
2018-01-07T18:43:29.899Z,2.10
2018-01-07T18:46:31.927Z,1.77
2018-01-07T18:49:33.804Z,1.80
2018-01-07T18:52:35.693Z,1.83
2018-01-07T18:55:37.558Z,2.03
2018-01-07T18:58:39.618Z,2.17
2018-01-07T19:01:41.478Z,1.90
2018-01-07T19:04:43.401Z,1.93
2018-01-07T19:07:45.263Z,1.70
2018-01-07T19:10:47.171Z,2.00
2018-01-07T19:13:49.020Z,1.97
2018-01-07T19:16:50.909Z,1.90
2018-01-07T19:19:52.784Z,1.80
2018-01-07T19:22:54.684Z,2.00
2018-01-07T19:25:56.538Z,1.70
2018-01-07T19:28:58.436Z,1.90
2018-01-07T19:32:00.489Z,2.10
2018-01-07T19:35:02.441Z,1.97
2018-01-07T19:38:04.336Z,1.70
2018-01-07T19:41:06.238Z,1.70
2018-01-07T19:44:09.110Z,1.90
2018-01-07T19:47:11.278Z,1.73
2018-01-07T19:50:13.123Z,2.00
2018-01-07T19:53:15.079Z,1.60
2018-01-07T19:56:16.972Z,1.97
2018-01-07T19:59:18.843Z,1.70
2018-01-07T20:02:20.855Z,1.93
2018-01-07T20:05:22.722Z,1.70
2018-01-07T20:08:24.607Z,2.00
2018-01-07T20:11:26.551Z,2.07
2018-01-07T20:14:28.456Z,1.87
2018-01-07T20:17:30.375Z,1.97
2018-01-07T20:20:32.452Z,1.70
2018-01-07T20:23:34.316Z,1.77
2018-01-07T20:26:36.396Z,1.90
2018-01-07T20:29:38.312Z,1.83
2018-01-07T20:32:40.218Z,2.10
2018-01-07T20:35:42.125Z,1.60
2018-01-07T20:38:44.015Z,2.03
2018-01-07T20:41:45.910Z,1.77
2018-01-07T20:44:48.084Z,1.97
2018-01-07T20:47:49.939Z,1.97
2018-01-07T20:50:52.062Z,2.13
2018-01-07T20:53:53.912Z,1.67
2018-01-07T20:56:55.788Z,1.67
2018-01-07T20:59:57.676Z,1.70
2018-01-07T21:02:59.570Z,1.53
2018-01-07T21:06:01.466Z,1.63
2018-01-07T21:09:03.403Z,1.77
2018-01-07T21:12:05.297Z,1.73
2018-01-07T21:15:07.184Z,2.00
2018-01-07T21:18:09.048Z,2.00
2018-01-07T21:21:10.935Z,1.80
2018-01-07T21:24:12.811Z,1.80
2018-01-07T21:27:14.711Z,1.87
2018-01-07T21:30:16.579Z,1.70
2018-01-07T21:33:18.471Z,2.10
2018-01-07T21:36:20.334Z,1.90
2018-01-07T21:39:22.247Z,1.90
2018-01-07T21:42:24.114Z,1.57
2018-01-07T21:45:25.985Z,1.60
2018-01-07T21:48:27.920Z,1.70
2018-01-07T21:51:29.784Z,1.93
2018-01-07T21:54:31.681Z,2.00
2018-01-07T21:57:34.148Z,1.80
2018-01-07T22:00:36.883Z,1.90
2018-01-07T22:03:38.735Z,2.03
2018-01-07T22:06:40.915Z,1.80
2018-01-07T22:09:42.759Z,1.83
2018-01-07T22:12:44.948Z,1.93
2018-01-07T22:15:46.816Z,1.90
2018-01-07T22:18:48.703Z,1.83
2018-01-07T22:21:50.567Z,2.03
2018-01-07T22:24:52.450Z,1.90
2018-01-07T22:27:54.328Z,1.87
2018-01-07T22:30:56.214Z,1.80
2018-01-07T22:33:58.100Z,1.97
2018-01-07T22:36:59.954Z,2.03
2018-01-07T22:40:01.884Z,1.93
2018-01-07T22:43:03.751Z,1.80
2018-01-07T22:46:06.543Z,1.90
2018-01-07T22:49:08.400Z,1.70
2018-01-07T22:52:10.291Z,1.77
2018-01-07T22:55:12.179Z,1.90
2018-01-07T22:58:14.035Z,2.20
2018-01-07T23:01:15.912Z,2.10
2018-01-07T23:04:17.771Z,1.97
2018-01-07T23:07:19.660Z,1.90
2018-01-07T23:10:21.524Z,2.10
2018-01-07T23:13:23.411Z,1.80
2018-01-07T23:16:25.329Z,1.90
2018-01-07T23:19:27.411Z,1.83
2018-01-07T23:22:29.282Z,1.93
2018-01-07T23:25:31.159Z,2.00
2018-01-07T23:28:33.033Z,2.10
2018-01-07T23:31:35.054Z,1.80
2018-01-07T23:34:36.928Z,2.03
2018-01-07T23:37:38.815Z,1.90
2018-01-07T23:40:40.714Z,2.00
2018-01-07T23:43:42.599Z,2.10
2018-01-07T23:46:44.478Z,2.00
2018-01-07T23:49:46.347Z,2.07
2018-01-07T23:52:48.240Z,2.10
2018-01-07T23:55:50.095Z,2.00
2018-01-07T23:58:52.148Z,2.10
